createdAt,value
2018-01-11T00:00:54.469Z,6.99
2018-01-11T00:03:29.746Z,6.51
2018-01-11T00:05:58.057Z,6.52
2018-01-11T00:08:26.406Z,6.78
2018-01-11T00:10:54.719Z,6.91
2018-01-11T00:13:24.237Z,6.98
2018-01-11T00:15:52.563Z,7.07
2018-01-11T00:18:20.909Z,7.18
2018-01-11T00:20:49.246Z,7.21
2018-01-11T00:23:17.590Z,7.24
2018-01-11T00:25:45.906Z,7.21
2018-01-11T00:28:14.254Z,7.24
2018-01-11T00:30:42.584Z,7.28
2018-01-11T00:33:11.698Z,7.34
2018-01-11T00:35:40.041Z,7.04
2018-01-11T00:38:08.362Z,6.90
2018-01-11T00:40:36.704Z,6.77
2018-01-11T00:43:05.022Z,6.72
2018-01-11T00:45:34.128Z,6.96
2018-01-11T00:48:02.479Z,7.05
2018-01-11T00:50:31.563Z,7.06
2018-01-11T00:52:59.882Z,7.22
2018-01-11T00:55:28.262Z,7.26
2018-01-11T00:57:56.596Z,7.36
2018-01-11T01:00:25.682Z,7.44
2018-01-11T01:02:54.015Z,7.45
2018-01-11T01:05:22.327Z,7.45
2018-01-11T01:07:50.660Z,7.57
2018-01-11T01:10:18.978Z,7.48
2018-01-11T01:12:47.317Z,7.15
2018-01-11T01:15:15.642Z,7.20
2018-01-11T01:17:43.963Z,7.28
2018-01-11T01:20:12.293Z,7.43
2018-01-11T01:22:40.611Z,7.51
2018-01-11T01:25:08.944Z,7.61
2018-01-11T01:27:38.798Z,7.70
2018-01-11T01:30:07.142Z,7.75
2018-01-11T01:32:35.481Z,7.82
2018-01-11T01:35:03.816Z,7.76
2018-01-11T01:37:32.902Z,7.81
2018-01-11T01:40:01.241Z,7.71
2018-01-11T01:42:29.572Z,7.81
2018-01-11T01:44:58.690Z,7.86
2018-01-11T01:47:27.014Z,7.59
2018-01-11T01:49:56.247Z,7.67
2018-01-11T01:52:24.567Z,7.59
2018-01-11T01:54:52.881Z,7.53
2018-01-11T01:57:21.206Z,7.70
2018-01-11T01:59:49.533Z,7.78
2018-01-11T02:02:17.853Z,7.78
2018-01-11T02:04:46.189Z,7.74
2018-01-11T02:07:14.490Z,7.72
2018-01-11T02:09:42.806Z,7.63
2018-01-11T02:12:11.118Z,7.65
2018-01-11T02:14:39.438Z,7.51
2018-01-11T02:17:07.764Z,7.57
2018-01-11T02:19:36.194Z,7.51
2018-01-11T02:22:04.525Z,7.54
2018-01-11T02:24:32.838Z,7.63
2018-01-11T02:27:01.172Z,7.73
2018-01-11T02:29:30.127Z,7.71
2018-01-11T02:32:03.672Z,7.67
2018-01-11T02:34:31.994Z,7.68
2018-01-11T02:37:00.317Z,7.75
2018-01-11T02:39:28.654Z,7.80
2018-01-11T02:41:56.966Z,7.86
2018-01-11T02:44:25.871Z,7.94
2018-01-11T02:46:57.104Z,7.94
2018-01-11T02:49:25.444Z,7.94
2018-01-11T02:51:53.777Z,7.98
2018-01-11T02:54:22.154Z,7.96
2018-01-11T02:56:50.479Z,8.00
2018-01-11T02:59:18.812Z,7.94
2018-01-11T03:01:47.890Z,7.98
2018-01-11T03:04:16.216Z,7.83
2018-01-11T03:06:44.556Z,7.79
2018-01-11T03:09:12.896Z,7.76
2018-01-11T03:11:41.234Z,7.37
2018-01-11T03:14:09.577Z,7.36
2018-01-11T03:16:37.890Z,7.54
2018-01-11T03:19:06.408Z,7.46
2018-01-11T03:21:34.740Z,7.08
2018-01-11T03:24:03.081Z,7.00
2018-01-11T03:26:31.395Z,7.07
2018-01-11T03:28:59.723Z,7.25
2018-01-11T03:31:28.057Z,7.38
2018-01-11T03:33:57.142Z,7.54
2018-01-11T03:36:26.218Z,7.64
2018-01-11T03:38:54.557Z,7.73
2018-01-11T03:41:22.882Z,7.79
2018-01-11T03:43:51.203Z,7.86
2018-01-11T03:46:19.514Z,7.85
2018-01-11T03:48:47.834Z,7.93
2018-01-11T03:51:16.176Z,8.02
2018-01-11T03:53:44.517Z,8.02
2018-01-11T03:56:12.844Z,8.03
2018-01-11T03:58:41.170Z,8.08
2018-01-11T04:01:10.252Z,8.14
2018-01-11T04:03:38.571Z,8.15
2018-01-11T04:06:06.911Z,8.12
2018-01-11T04:08:35.244Z,8.00
2018-01-11T04:11:03.575Z,7.94
2018-01-11T04:13:31.914Z,7.82
2018-01-11T04:16:01.104Z,7.93
2018-01-11T04:18:29.431Z,7.95
2018-01-11T04:20:57.805Z,8.00
2018-01-11T04:23:26.135Z,8.05
2018-01-11T04:25:54.465Z,8.01
2018-01-11T04:28:22.818Z,7.88
2018-01-11T04:30:51.152Z,7.99
2018-01-11T04:33:19.488Z,8.07
2018-01-11T04:35:47.817Z,8.08
2018-01-11T04:38:16.961Z,7.85
2018-01-11T04:40:45.282Z,7.86
2018-01-11T04:43:13.620Z,7.85
2018-01-11T04:45:41.959Z,7.82
2018-01-11T04:48:10.286Z,7.86
2018-01-11T04:50:38.599Z,7.95
2018-01-11T04:53:06.916Z,8.02
2018-01-11T04:55:35.237Z,8.01
2018-01-11T04:58:03.573Z,7.99
2018-01-11T05:00:37.306Z,8.04
2018-01-11T05:03:05.626Z,8.04
2018-01-11T05:05:33.941Z,7.97
2018-01-11T05:08:02.274Z,7.97
2018-01-11T05:10:31.293Z,8.02
2018-01-11T05:12:59.619Z,8.07
2018-01-11T05:15:27.952Z,8.10
2018-01-11T05:17:56.287Z,8.10
2018-01-11T05:20:24.611Z,8.18
2018-01-11T05:22:54.699Z,8.24
2018-01-11T05:25:23.044Z,8.29
2018-01-11T05:27:51.409Z,8.34
2018-01-11T05:30:19.733Z,8.31
2018-01-11T05:32:48.826Z,8.14
2018-01-11T05:35:17.166Z,8.16
2018-01-11T05:37:45.519Z,8.23
2018-01-11T05:40:13.843Z,8.32
2018-01-11T05:42:42.171Z,8.31
2018-01-11T05:45:10.496Z,8.37
2018-01-11T05:47:38.832Z,8.36
2018-01-11T05:50:07.178Z,8.35
2018-01-11T05:52:35.517Z,8.32
2018-01-11T05:55:03.838Z,8.34
2018-01-11T05:57:32.937Z,8.28
2018-01-11T06:00:01.260Z,8.29
2018-01-11T06:02:29.596Z,8.31
2018-01-11T06:04:57.932Z,8.29
2018-01-11T06:07:26.266Z,8.31
2018-01-11T06:09:54.589Z,8.21
2018-01-11T06:12:22.917Z,8.22
2018-01-11T06:14:51.255Z,8.27
2018-01-11T06:17:19.594Z,8.21
2018-01-11T06:19:47.921Z,8.14
2018-01-11T06:22:16.998Z,8.18
2018-01-11T06:24:45.317Z,8.18
2018-01-11T06:27:13.641Z,8.23
2018-01-11T06:29:41.977Z,8.32
2018-01-11T06:32:10.305Z,8.08
2018-01-11T06:34:38.644Z,7.69
2018-01-11T06:37:06.973Z,7.94
2018-01-11T06:39:36.009Z,8.00
2018-01-11T06:42:04.336Z,7.99
2018-01-11T06:44:32.664Z,7.81
2018-01-11T06:47:00.984Z,7.44
2018-01-11T06:49:29.332Z,7.09
2018-01-11T06:51:58.424Z,6.87
2018-01-11T06:54:26.758Z,7.17
2018-01-11T06:56:56.457Z,7.37
2018-01-11T06:59:24.813Z,7.45
2018-01-11T07:01:53.151Z,7.61
2018-01-11T07:04:21.483Z,7.48
2018-01-11T07:06:49.820Z,7.05
2018-01-11T07:09:18.170Z,7.31
2018-01-11T07:11:46.514Z,7.46
2018-01-11T07:14:14.843Z,7.65
2018-01-11T07:16:44.302Z,7.60
2018-01-11T07:19:12.630Z,7.72
2018-01-11T07:21:40.971Z,7.85
2018-01-11T07:24:09.323Z,7.84
2018-01-11T07:26:37.661Z,7.96
2018-01-11T07:29:06.005Z,8.06
2018-01-11T07:31:34.555Z,8.11
2018-01-11T07:34:02.895Z,8.10
2018-01-11T07:36:31.209Z,8.19
2018-01-11T07:38:59.551Z,8.27
2018-01-11T07:41:28.858Z,8.30
2018-01-11T07:43:57.186Z,8.28
2018-01-11T07:46:25.514Z,8.22
2018-01-11T07:48:53.861Z,8.24
2018-01-11T07:51:22.965Z,8.34
2018-01-11T07:53:51.306Z,8.32
2018-01-11T07:56:19.641Z,8.35
2018-01-11T07:58:47.970Z,8.34
2018-01-11T08:01:17.073Z,8.33
2018-01-11T08:03:45.417Z,8.35
2018-01-11T08:06:13.758Z,8.37
2018-01-11T08:08:42.079Z,8.30
2018-01-11T08:11:10.402Z,8.39
2018-01-11T08:13:38.748Z,8.39
2018-01-11T08:16:07.072Z,8.37
2018-01-11T08:18:35.424Z,8.36
2018-01-11T08:21:03.785Z,8.19
2018-01-11T08:23:32.137Z,8.15
2018-01-11T08:26:01.076Z,8.27
2018-01-11T08:28:29.417Z,8.27
2018-01-11T08:30:59.753Z,8.26
2018-01-11T08:33:28.075Z,8.31
2018-01-11T08:35:56.390Z,8.38
2018-01-11T08:38:24.719Z,8.41
2018-01-11T08:40:53.057Z,8.39
2018-01-11T08:43:21.380Z,8.48
2018-01-11T08:45:49.703Z,8.43
2018-01-11T08:48:18.038Z,8.40
2018-01-11T08:50:46.370Z,8.43
2018-01-11T08:53:15.481Z,7.81
2018-01-11T08:55:43.835Z,7.48
2018-01-11T08:58:12.188Z,7.21
2018-01-11T09:00:40.524Z,7.44
2018-01-11T09:03:09.615Z,7.53
2018-01-11T09:05:37.943Z,7.41
2018-01-11T09:08:06.292Z,7.38
2018-01-11T09:10:34.614Z,7.57
2018-01-11T09:13:02.950Z,7.39
2018-01-11T09:15:31.293Z,7.42
2018-01-11T09:17:59.626Z,7.16
2018-01-11T09:20:28.298Z,7.19
2018-01-11T09:22:57.604Z,7.39
2018-01-11T09:25:25.936Z,7.69
2018-01-11T09:27:54.804Z,7.85
2018-01-11T09:30:23.140Z,7.86
2018-01-11T09:32:51.463Z,8.05
2018-01-11T09:35:19.793Z,8.22
2018-01-11T09:37:48.133Z,8.26
2018-01-11T09:40:16.466Z,8.20
2018-01-11T09:42:44.810Z,8.09
2018-01-11T09:45:13.137Z,8.23
2018-01-11T09:47:41.450Z,8.34
2018-01-11T09:50:09.789Z,8.40
2018-01-11T09:52:38.118Z,8.49
2018-01-11T09:55:06.464Z,8.64
2018-01-11T09:57:34.786Z,8.72
2018-01-11T10:00:03.518Z,8.81
2018-01-11T10:02:31.862Z,8.89
2018-01-11T10:05:00.186Z,8.89
2018-01-11T10:07:28.524Z,8.98
2018-01-11T10:09:56.891Z,9.02
2018-01-11T10:12:25.206Z,8.94
2018-01-11T10:14:53.549Z,9.06
2018-01-11T10:17:21.887Z,9.18
2018-01-11T10:19:50.230Z,8.98
2018-01-11T10:22:18.578Z,9.01
2018-01-11T10:24:46.916Z,8.64
2018-01-11T10:27:15.999Z,8.65
2018-01-11T10:29:45.073Z,8.72
2018-01-11T10:32:13.423Z,8.71
2018-01-11T10:34:41.746Z,8.76
2018-01-11T10:37:10.081Z,8.89
2018-01-11T10:39:38.405Z,8.91
2018-01-11T10:42:07.553Z,9.04
2018-01-11T10:44:35.899Z,9.00
2018-01-11T10:47:04.233Z,9.09
2018-01-11T10:49:33.723Z,9.23
2018-01-11T10:52:05.653Z,9.32
2018-01-11T10:54:33.987Z,9.28
2018-01-11T10:57:02.325Z,9.00
2018-01-11T10:59:30.646Z,8.97
2018-01-11T11:02:04.409Z,9.05
2018-01-11T11:04:32.729Z,9.11
2018-01-11T11:07:01.058Z,9.12
2018-01-11T11:09:32.250Z,9.16
2018-01-11T11:12:00.582Z,8.89
2018-01-11T11:14:28.905Z,8.88
2018-01-11T11:16:57.223Z,8.86
2018-01-11T11:19:25.548Z,9.03
2018-01-11T11:21:53.888Z,9.14
2018-01-11T11:24:22.210Z,9.30
2018-01-11T11:26:50.534Z,9.36
2018-01-11T11:29:18.855Z,9.37
2018-01-11T11:31:47.165Z,9.39
2018-01-11T11:34:15.755Z,9.39
2018-01-11T11:36:44.087Z,9.42
2018-01-11T11:39:12.407Z,9.47
2018-01-11T11:41:41.503Z,9.46
2018-01-11T11:44:09.823Z,9.43
2018-01-11T11:46:38.142Z,9.51
2018-01-11T11:49:06.484Z,9.56
2018-01-11T11:51:34.816Z,9.68
2018-01-11T11:54:03.156Z,9.66
2018-01-11T11:56:31.482Z,9.71
2018-01-11T11:58:59.814Z,9.76
2018-01-11T12:01:28.154Z,9.85
2018-01-11T12:03:56.511Z,9.54
2018-01-11T12:06:24.852Z,9.59
2018-01-11T12:08:53.178Z,9.29
2018-01-11T12:11:21.508Z,9.33
2018-01-11T12:13:49.890Z,9.38
2018-01-11T12:16:18.233Z,9.48
2018-01-11T12:18:46.578Z,9.68
2018-01-11T12:21:14.894Z,9.76
2018-01-11T12:23:43.246Z,9.51
2018-01-11T12:26:11.570Z,9.61
2018-01-11T12:28:39.909Z,9.78
2018-01-11T12:31:08.221Z,9.79
2018-01-11T12:33:36.558Z,9.79
2018-01-11T12:36:04.893Z,9.84
2018-01-11T12:38:33.254Z,9.83
2018-01-11T12:41:01.592Z,9.88
2018-01-11T12:43:29.915Z,9.74
2018-01-11T12:45:58.248Z,9.77
2018-01-11T12:48:26.599Z,9.86
2018-01-11T12:50:54.930Z,9.90
2018-01-11T12:53:23.250Z,9.97
2018-01-11T12:55:52.178Z,9.88
2018-01-11T12:58:20.552Z,10.01
2018-01-11T13:00:49.731Z,10.19
2018-01-11T13:03:18.076Z,10.32
2018-01-11T13:05:46.444Z,10.54
2018-01-11T13:08:14.784Z,10.56
2018-01-11T13:10:43.121Z,10.13
2018-01-11T13:13:11.458Z,9.94
2018-01-11T13:15:39.793Z,10.05
2018-01-11T13:18:08.132Z,10.61
2018-01-11T13:20:36.468Z,11.07
2018-01-11T13:23:04.810Z,11.06
2018-01-11T13:25:33.154Z,10.99
2018-01-11T13:28:02.486Z,10.80
2018-01-11T13:30:30.832Z,10.70
2018-01-11T13:33:00.529Z,10.65
2018-01-11T13:35:28.882Z,10.64
2018-01-11T13:37:57.249Z,10.70
2018-01-11T13:40:25.594Z,10.82
2018-01-11T13:42:53.923Z,10.86
2018-01-11T13:45:22.283Z,10.82
2018-01-11T13:47:50.608Z,10.86
2018-01-11T13:50:18.935Z,10.88
2018-01-11T13:52:47.254Z,10.96
2018-01-11T13:55:15.592Z,10.93
2018-01-11T13:57:43.949Z,10.55
2018-01-11T14:00:12.297Z,10.67
2018-01-11T14:02:40.676Z,10.58
2018-01-11T14:05:09.005Z,10.47
2018-01-11T14:07:37.349Z,10.32
2018-01-11T14:10:05.702Z,10.37
2018-01-11T14:12:34.061Z,10.52
2018-01-11T14:15:02.400Z,10.31
2018-01-11T14:17:31.494Z,10.30
2018-01-11T14:19:59.833Z,10.49
2018-01-11T14:22:28.193Z,10.54
2018-01-11T14:24:56.558Z,10.63
2018-01-11T14:27:24.903Z,10.77
2018-01-11T14:29:53.998Z,10.95
2018-01-11T14:32:22.342Z,10.74
2018-01-11T14:34:50.683Z,10.49
2018-01-11T14:37:19.002Z,10.36
2018-01-11T14:39:47.354Z,10.25
2018-01-11T14:42:16.061Z,10.36
2018-01-11T14:44:44.390Z,10.25
2018-01-11T14:47:12.711Z,10.15
2018-01-11T14:49:41.051Z,9.92
2018-01-11T14:52:09.363Z,9.84
2018-01-11T14:54:38.692Z,9.86
2018-01-11T14:57:07.020Z,9.95
2018-01-11T14:59:35.343Z,9.75
2018-01-11T15:02:03.672Z,9.76
2018-01-11T15:04:32.024Z,9.55
2018-01-11T15:07:00.339Z,9.73
2018-01-11T15:09:29.121Z,9.76
2018-01-11T15:11:57.442Z,9.84
2018-01-11T15:14:26.043Z,9.72
2018-01-11T15:16:54.408Z,9.66
2018-01-11T15:19:22.733Z,9.69
2018-01-11T15:21:51.075Z,9.69
2018-01-11T15:24:20.174Z,9.55
2018-01-11T15:26:48.487Z,9.36
2018-01-11T15:29:16.814Z,9.18
2018-01-11T15:31:45.140Z,9.19
2018-01-11T15:34:13.449Z,9.10
2018-01-11T15:36:41.762Z,9.18
2018-01-11T15:39:11.312Z,8.88
2018-01-11T15:41:39.632Z,8.84
2018-01-11T15:44:08.744Z,8.93
2018-01-11T15:46:37.081Z,9.07
2018-01-11T15:49:05.404Z,9.15
2018-01-11T15:51:34.489Z,9.24
2018-01-11T15:54:02.824Z,9.26
2018-01-11T15:56:31.817Z,9.31
2018-01-11T15:59:00.134Z,9.33
2018-01-11T16:01:29.223Z,9.26
2018-01-11T16:03:57.547Z,9.22
2018-01-11T16:06:26.419Z,9.16
2018-01-11T16:08:54.760Z,9.11
2018-01-11T16:11:23.096Z,9.14
2018-01-11T16:13:51.641Z,8.35
2018-01-11T16:16:20.737Z,8.31
2018-01-11T16:18:49.080Z,8.19
2018-01-11T16:21:17.413Z,8.46
2018-01-11T16:23:47.309Z,8.40
2018-01-11T16:26:15.666Z,8.60
2018-01-11T16:28:44.779Z,8.74
2018-01-11T16:31:13.112Z,8.86
2018-01-11T16:33:41.447Z,8.85
2018-01-11T16:36:09.763Z,8.83
2018-01-11T16:38:38.111Z,8.61
2018-01-11T16:41:06.435Z,8.73
2018-01-11T16:43:34.782Z,8.74
2018-01-11T16:46:03.161Z,8.84
2018-01-11T16:48:31.487Z,8.80
2018-01-11T16:50:59.833Z,8.83
2018-01-11T16:53:28.162Z,8.87
2018-01-11T16:55:56.497Z,8.81
2018-01-11T16:58:24.839Z,8.65
2018-01-11T17:00:53.164Z,8.69
2018-01-11T17:03:21.512Z,8.60
2018-01-11T17:05:49.847Z,8.58
2018-01-11T17:08:18.166Z,8.36
2018-01-11T17:10:46.500Z,8.35
2018-01-11T17:13:15.590Z,8.50
2018-01-11T17:15:43.927Z,8.61
2018-01-11T17:18:12.261Z,8.62
2018-01-11T17:20:40.597Z,8.64
2018-01-11T17:23:08.925Z,8.59
2018-01-11T17:25:37.260Z,8.54
2018-01-11T17:28:05.625Z,8.54
2018-01-11T17:30:33.971Z,8.56
2018-01-11T17:33:02.327Z,8.56
2018-01-11T17:35:30.660Z,7.82
2018-01-11T17:37:58.998Z,7.82
2018-01-11T17:40:27.323Z,7.80
2018-01-11T17:42:55.652Z,7.56
2018-01-11T17:45:24.034Z,7.62
2018-01-11T17:47:52.361Z,7.85
2018-01-11T17:50:22.225Z,7.97
2018-01-11T17:52:51.297Z,8.04
2018-01-11T17:55:19.621Z,8.03
2018-01-11T17:57:48.004Z,7.60
2018-01-11T18:00:17.822Z,7.66
2018-01-11T18:02:46.144Z,7.48
2018-01-11T18:05:14.482Z,7.65
2018-01-11T18:07:42.817Z,7.71
2018-01-11T18:10:11.163Z,7.72
2018-01-11T18:12:39.496Z,7.74
2018-01-11T18:15:08.036Z,7.74
2018-01-11T18:17:36.426Z,7.75
2018-01-11T18:20:04.790Z,7.77
2018-01-11T18:22:33.411Z,7.78
2018-01-11T18:25:01.832Z,7.87
2018-01-11T18:27:30.964Z,7.59
2018-01-11T18:29:59.292Z,7.54
2018-01-11T18:32:27.676Z,7.53
2018-01-11T18:34:56.278Z,6.89
2018-01-11T18:37:25.271Z,6.45
2018-01-11T18:39:53.770Z,6.27
2018-01-11T18:42:22.606Z,6.49
2018-01-11T18:44:52.463Z,6.74
2018-01-11T18:47:21.929Z,6.88
2018-01-11T18:49:51.785Z,6.85
2018-01-11T18:52:21.016Z,6.76
2018-01-11T18:54:51.540Z,7.03
2018-01-11T18:57:21.820Z,6.94
2018-01-11T18:59:51.285Z,7.02
2018-01-11T19:02:21.053Z,7.14
2018-01-11T19:04:50.820Z,7.26
2018-01-11T19:07:20.593Z,7.22
2018-01-11T19:09:50.486Z,7.23
2018-01-11T19:12:20.293Z,6.87
2018-01-11T19:14:50.992Z,7.04
2018-01-11T19:17:20.770Z,7.17
2018-01-11T19:19:50.610Z,7.27
2018-01-11T19:22:21.264Z,7.30
2018-01-11T19:24:51.097Z,7.22
2018-01-11T19:27:21.749Z,7.13
2018-01-11T19:29:51.610Z,6.82
2018-01-11T19:32:21.426Z,7.12
2018-01-11T19:34:51.283Z,7.23
2018-01-11T19:37:21.178Z,7.31
2018-01-11T19:39:51.034Z,7.37
2018-01-11T19:42:20.948Z,7.17
2018-01-11T19:44:50.901Z,6.94
2018-01-11T19:47:21.640Z,6.97
2018-01-11T19:49:51.523Z,6.81
2018-01-11T19:52:21.575Z,6.87
2018-01-11T19:54:51.479Z,7.21
2018-01-11T19:57:21.361Z,7.32
2018-01-11T19:59:51.175Z,7.43
2018-01-11T20:02:20.993Z,7.39
2018-01-11T20:04:50.910Z,7.40
2018-01-11T20:07:21.510Z,7.40
2018-01-11T20:09:51.466Z,7.32
2018-01-11T20:12:21.355Z,7.30
2018-01-11T20:14:51.138Z,7.18
2018-01-11T20:17:21.019Z,7.02
2018-01-11T20:19:50.899Z,7.17
2018-01-11T20:22:21.898Z,7.16
2018-01-11T20:24:51.876Z,7.10
2018-01-11T20:43:26.844Z,6.53
2018-01-11T20:45:56.904Z,6.70
2018-01-11T20:48:27.460Z,6.71
2018-01-11T20:51:02.818Z,6.75
2018-01-11T20:53:32.746Z,6.89
2018-01-11T20:56:02.769Z,6.98
2018-01-11T20:58:32.984Z,7.07
2018-01-11T21:01:03.253Z,7.21
2018-01-11T21:03:33.178Z,7.21
2018-01-11T21:06:03.040Z,7.24
2018-01-11T21:08:33.597Z,7.19
2018-01-11T21:27:08.697Z,7.01
2018-01-11T21:29:38.708Z,7.03
2018-01-11T21:32:08.600Z,7.04
2018-01-11T21:34:38.470Z,7.11
2018-01-11T21:37:08.363Z,7.18
2018-01-11T21:39:38.220Z,7.08
2018-01-11T21:42:08.214Z,6.95
2018-01-11T21:44:38.135Z,6.51
2018-01-11T21:47:08.261Z,6.47
2018-01-11T21:49:39.907Z,6.61
2018-01-11T21:52:09.818Z,6.72
2018-01-11T21:54:39.666Z,6.68
2018-01-11T21:57:09.501Z,6.73
2018-01-11T21:59:39.484Z,6.86
2018-01-11T22:02:09.434Z,6.84
2018-01-11T22:04:39.245Z,6.65
2018-01-11T22:07:09.155Z,6.47
2018-01-11T22:09:38.969Z,6.65
2018-01-11T22:12:09.604Z,6.82
2018-01-11T22:14:39.474Z,6.84
2018-01-11T22:17:09.588Z,6.82
2018-01-11T22:19:39.709Z,6.98
2018-01-11T22:22:09.502Z,7.01
2018-01-11T22:24:39.359Z,6.96
2018-01-11T22:27:09.288Z,6.69
2018-01-11T22:29:39.049Z,6.87
2018-01-11T22:32:08.969Z,6.99
2018-01-11T22:34:38.762Z,7.05
2018-01-11T22:37:08.609Z,7.11
2018-01-11T22:39:37.865Z,6.87
2018-01-11T22:42:08.692Z,6.95
2018-01-11T22:44:38.265Z,7.08
2018-01-11T22:47:06.837Z,7.15
2018-01-11T22:49:36.207Z,7.14
2018-01-11T22:52:04.681Z,7.14
2018-01-11T22:54:33.177Z,7.12
2018-01-11T22:57:01.508Z,7.18
2018-01-11T22:59:29.844Z,7.20
2018-01-11T23:01:58.183Z,7.27
2018-01-11T23:04:26.495Z,7.28
2018-01-11T23:06:54.805Z,7.27
2018-01-11T23:09:23.166Z,7.23
2018-01-11T23:11:51.945Z,7.27
2018-01-11T23:14:20.270Z,7.35
2018-01-11T23:16:48.588Z,7.42
2018-01-11T23:19:16.929Z,7.36
2018-01-11T23:21:45.258Z,7.37
2018-01-11T23:24:13.580Z,7.41
2018-01-11T23:26:41.909Z,7.37
2018-01-11T23:29:10.235Z,7.24
2018-01-11T23:31:38.600Z,7.29
2018-01-11T23:34:06.929Z,7.36
2018-01-11T23:36:35.262Z,7.32
2018-01-11T23:39:03.593Z,7.19
2018-01-11T23:41:31.934Z,7.20
2018-01-11T23:44:00.259Z,7.25
2018-01-11T23:46:28.588Z,7.28
2018-01-11T23:48:57.688Z,7.28
2018-01-11T23:51:26.021Z,6.86
2018-01-11T23:53:54.358Z,6.76
2018-01-11T23:56:22.697Z,6.83
2018-01-11T23:58:52.622Z,6.93
